createdAt,value
2023-10-09T00:00:27.184Z,10.73
2023-10-09T00:02:53.621Z,10.77
2023-10-09T00:05:20.129Z,10.78
2023-10-09T00:07:46.470Z,10.83
2023-10-09T00:10:12.875Z,10.90
2023-10-09T00:12:39.243Z,10.93
2023-10-09T00:15:06.006Z,10.97
2023-10-09T00:17:32.590Z,11.00
2023-10-09T00:19:59.137Z,10.98
2023-10-09T00:22:25.508Z,11.00
2023-10-09T00:24:52.857Z,11.04
2023-10-09T00:27:19.290Z,11.06
2023-10-09T00:29:46.160Z,11.04
2023-10-09T00:32:13.721Z,11.02
2023-10-09T00:34:41.257Z,11.08
2023-10-09T00:37:08.834Z,11.05
2023-10-09T00:39:35.231Z,11.03
2023-10-09T00:42:01.630Z,11.01
2023-10-09T00:44:28.507Z,10.96
2023-10-09T00:46:54.895Z,10.92
2023-10-09T00:49:21.274Z,10.89
2023-10-09T00:51:52.626Z,10.85
2023-10-09T00:54:19.099Z,10.79
2023-10-09T00:56:46.185Z,10.74
2023-10-09T00:59:17.182Z,10.70
2023-10-09T01:01:43.992Z,10.70
2023-10-09T01:04:10.586Z,10.66
2023-10-09T01:06:42.696Z,10.62
2023-10-09T01:09:09.077Z,10.63
2023-10-09T01:11:35.494Z,10.61
2023-10-09T01:14:01.881Z,10.58
2023-10-09T01:16:28.335Z,10.52
2023-10-09T01:18:56.175Z,10.50
2023-10-09T01:21:22.583Z,10.44
2023-10-09T01:23:48.962Z,10.41
2023-10-09T01:26:15.313Z,10.37
2023-10-09T01:28:41.667Z,10.30
2023-10-09T01:31:08.054Z,10.23
2023-10-09T01:33:34.476Z,10.19
2023-10-09T01:36:00.923Z,10.13
2023-10-09T01:38:27.299Z,10.10
2023-10-09T01:40:53.639Z,10.04
2023-10-09T01:43:20.010Z,9.97
2023-10-09T01:45:46.386Z,9.89
2023-10-09T01:48:13.769Z,9.87
2023-10-09T01:50:40.225Z,9.83
2023-10-09T01:53:06.582Z,9.78
2023-10-09T01:55:33.245Z,9.74
2023-10-09T01:57:59.906Z,9.70
2023-10-09T02:00:26.288Z,9.68
2023-10-09T02:02:52.709Z,9.62
2023-10-09T02:05:19.191Z,9.58
2023-10-09T02:07:45.923Z,9.53
2023-10-09T02:10:15.241Z,9.46
2023-10-09T02:12:41.588Z,9.48
2023-10-09T02:15:08.534Z,9.52
2023-10-09T02:17:34.936Z,9.56
2023-10-09T02:20:01.326Z,9.61
2023-10-09T02:22:27.674Z,9.64
2023-10-09T02:24:54.041Z,9.63
2023-10-09T02:27:20.790Z,9.65
2023-10-09T02:29:47.459Z,9.64
2023-10-09T02:32:14.577Z,9.57
2023-10-09T02:34:41.521Z,9.61
2023-10-09T02:37:07.875Z,9.62
2023-10-09T02:39:34.269Z,9.61
2023-10-09T02:42:00.677Z,9.57
2023-10-09T02:44:27.445Z,9.55
2023-10-09T02:46:53.903Z,9.55
2023-10-09T02:49:20.274Z,9.56
2023-10-09T02:51:46.621Z,9.58
2023-10-09T02:54:13.240Z,9.54
2023-10-09T02:56:39.769Z,9.56
2023-10-09T02:59:06.425Z,9.58
2023-10-09T03:01:37.575Z,9.55
2023-10-09T03:04:05.578Z,9.48
2023-10-09T03:06:33.506Z,9.48
2023-10-09T03:08:59.982Z,9.45
2023-10-09T03:11:26.519Z,9.46
2023-10-09T03:13:53.536Z,9.51
2023-10-09T03:16:22.308Z,9.55
2023-10-09T03:18:53.873Z,9.54
2023-10-09T03:21:20.972Z,9.68
2023-10-09T03:23:48.972Z,9.66
2023-10-09T03:28:48.214Z,9.66
2023-10-09T03:31:14.958Z,9.68
2023-10-09T03:33:42.192Z,9.67
2023-10-09T03:36:08.758Z,9.60
2023-10-09T03:38:35.127Z,9.66
2023-10-09T03:41:05.324Z,9.68
2023-10-09T03:43:31.687Z,9.70
2023-10-09T03:45:58.042Z,9.68
2023-10-09T03:48:24.428Z,9.73
2023-10-09T03:50:50.863Z,9.81
2023-10-09T03:53:17.250Z,9.88
2023-10-09T03:55:43.592Z,9.97
2023-10-09T03:58:10.194Z,10.01
2023-10-09T04:00:36.601Z,10.09
2023-10-09T04:03:03.264Z,10.13
2023-10-09T04:05:29.814Z,10.11
2023-10-09T04:07:56.459Z,10.13
2023-10-09T04:10:22.921Z,10.11
2023-10-09T04:12:49.259Z,10.12
2023-10-09T04:15:15.614Z,10.19
2023-10-09T04:17:42.030Z,10.26
2023-10-09T04:20:08.870Z,10.28
2023-10-09T04:22:35.533Z,10.35
2023-10-09T04:25:01.915Z,10.37
2023-10-09T04:27:28.277Z,10.39
2023-10-09T04:29:54.691Z,10.35
2023-10-09T04:32:21.337Z,10.35
2023-10-09T04:34:47.702Z,10.39
2023-10-09T04:37:14.033Z,10.43
2023-10-09T04:39:40.573Z,10.43
2023-10-09T04:42:07.014Z,10.40
2023-10-09T04:44:33.415Z,10.48
2023-10-09T04:46:59.790Z,10.64
2023-10-09T04:49:26.158Z,10.65
2023-10-09T04:51:52.518Z,10.64
2023-10-09T04:54:18.933Z,10.63
2023-10-09T04:56:45.300Z,10.60
2023-10-09T04:59:12.002Z,10.56
2023-10-09T05:01:38.468Z,10.57
2023-10-09T05:04:05.592Z,10.57
2023-10-09T05:06:32.160Z,10.61
2023-10-09T05:08:58.622Z,10.55
2023-10-09T05:11:24.999Z,10.61
2023-10-09T05:13:51.497Z,10.67
2023-10-09T05:16:20.067Z,10.71
2023-10-09T05:18:47.905Z,10.75
2023-10-09T05:21:14.411Z,10.83
2023-10-09T05:23:41.238Z,10.85
2023-10-09T05:26:07.620Z,10.96
2023-10-09T05:28:33.983Z,11.08
2023-10-09T05:31:00.502Z,11.16
2023-10-09T05:33:26.857Z,11.22
2023-10-09T05:35:53.250Z,11.24
2023-10-09T05:38:19.629Z,11.27
2023-10-09T05:40:46.766Z,11.32
2023-10-09T05:43:13.297Z,11.34
2023-10-09T05:45:39.748Z,11.38
2023-10-09T05:48:06.536Z,11.39
2023-10-09T05:50:33.555Z,11.43
2023-10-09T05:53:00.149Z,11.48
2023-10-09T05:55:27.137Z,11.51
2023-10-09T05:57:57.396Z,11.54
2023-10-09T06:00:24.339Z,11.56
2023-10-09T06:03:01.089Z,11.58
2023-10-09T06:05:28.378Z,11.61
2023-10-09T06:07:54.780Z,11.62
2023-10-09T06:10:21.139Z,11.59
2023-10-09T06:12:49.892Z,11.66
2023-10-09T06:15:18.220Z,11.73
2023-10-09T06:17:44.866Z,11.77
2023-10-09T06:20:11.697Z,11.76
2023-10-09T06:22:38.076Z,11.77
2023-10-09T06:25:04.780Z,11.79
2023-10-09T06:27:31.542Z,11.75
2023-10-09T06:29:59.540Z,11.80
2023-10-09T06:32:26.021Z,11.72
2023-10-09T06:34:54.525Z,11.79
2023-10-09T06:37:21.270Z,11.85
2023-10-09T06:39:47.645Z,11.93
2023-10-09T06:42:14.022Z,11.90
2023-10-09T06:44:40.401Z,11.99
2023-10-09T06:47:06.786Z,12.00
2023-10-09T06:49:33.126Z,11.93
2023-10-09T06:51:59.549Z,11.97
2023-10-09T06:54:25.983Z,12.00
2023-10-09T06:56:52.412Z,12.06
2023-10-09T06:59:18.766Z,12.12
2023-10-09T07:01:45.263Z,12.20
2023-10-09T07:04:13.256Z,12.28
2023-10-09T07:06:39.841Z,12.42
2023-10-09T07:09:06.336Z,12.48
2023-10-09T07:11:37.379Z,12.55
2023-10-09T07:14:03.774Z,12.58
2023-10-09T07:16:30.243Z,12.63
2023-10-09T07:18:57.356Z,12.60
2023-10-09T07:21:23.738Z,12.55
2023-10-09T07:23:50.192Z,12.56
2023-10-09T07:26:16.588Z,12.56
2023-10-09T07:28:42.965Z,12.62
2023-10-09T07:31:09.723Z,12.61
2023-10-09T07:33:36.148Z,12.67
2023-10-09T07:36:02.902Z,12.64
2023-10-09T07:38:29.342Z,12.66
2023-10-09T07:40:56.917Z,12.72
2023-10-09T07:43:23.885Z,12.77
2023-10-09T07:45:50.296Z,12.74
2023-10-09T07:48:16.720Z,12.73
2023-10-09T07:50:43.090Z,12.81
2023-10-09T07:53:09.511Z,12.89
2023-10-09T07:55:40.346Z,13.01
2023-10-09T07:58:06.733Z,13.12
2023-10-09T08:00:33.192Z,13.22
2023-10-09T08:02:59.799Z,13.32
2023-10-09T08:05:26.159Z,13.31
2023-10-09T08:08:04.856Z,13.24
2023-10-09T08:10:40.387Z,13.15
2023-10-09T08:13:06.766Z,13.09
2023-10-09T08:15:33.166Z,13.10
2023-10-09T08:17:59.573Z,13.07
2023-10-09T08:20:27.539Z,13.10
2023-10-09T08:22:54.397Z,13.12
2023-10-09T08:25:20.782Z,13.07
2023-10-09T08:27:47.206Z,13.03
2023-10-09T08:30:13.770Z,13.06
2023-10-09T08:35:10.560Z,13.29
2023-10-09T08:37:37.195Z,13.39
2023-10-09T08:40:03.868Z,13.45
2023-10-09T08:42:30.397Z,13.58
2023-10-09T08:44:58.184Z,13.67
2023-10-09T08:47:24.572Z,13.73
2023-10-09T08:49:51.218Z,13.58
2023-10-09T08:52:17.655Z,13.47
2023-10-09T08:54:44.881Z,13.30
2023-10-09T08:57:11.316Z,13.26
2023-10-09T08:59:43.478Z,13.22
2023-10-09T09:02:10.784Z,13.25
2023-10-09T09:04:38.395Z,13.28
2023-10-09T09:07:05.860Z,13.35
2023-10-09T09:09:32.745Z,13.41
2023-10-09T09:11:59.186Z,13.40
2023-10-09T09:14:37.094Z,13.46
2023-10-09T09:17:04.079Z,13.56
2023-10-09T09:19:33.610Z,13.52
2023-10-09T09:22:00.188Z,13.64
2023-10-09T09:24:26.942Z,13.69
2023-10-09T09:27:04.077Z,13.72
2023-10-09T09:29:36.180Z,13.66
2023-10-09T09:32:02.638Z,13.70
2023-10-09T09:34:29.052Z,13.81
2023-10-09T09:36:57.173Z,13.78
2023-10-09T09:39:35.522Z,13.77
2023-10-09T09:42:06.716Z,13.77
2023-10-09T09:44:33.681Z,13.82
2023-10-09T09:47:01.356Z,13.84
2023-10-09T09:49:31.343Z,13.80
2023-10-09T09:51:58.138Z,13.72
2023-10-09T09:54:27.677Z,13.63
2023-10-09T09:56:55.365Z,13.54
2023-10-09T09:59:27.184Z,13.34
2023-10-09T10:01:57.541Z,13.22
2023-10-09T10:04:29.246Z,13.06
2023-10-09T10:06:56.665Z,12.98
2023-10-09T10:09:42.116Z,12.94
2023-10-09T10:12:12.762Z,12.91
2023-10-09T10:14:51.195Z,12.87
2023-10-09T10:17:18.009Z,12.91
2023-10-09T10:20:02.531Z,12.93
2023-10-09T10:22:30.682Z,12.94
2023-10-09T10:24:57.849Z,12.97
2023-10-09T10:27:27.600Z,13.09
2023-10-09T10:30:12.520Z,13.19
2023-10-09T10:32:58.594Z,13.36
2023-10-09T10:35:25.232Z,13.46
2023-10-09T10:37:51.867Z,13.52
2023-10-09T10:40:25.101Z,13.59
2023-10-09T10:42:51.463Z,13.67
2023-10-09T10:45:19.411Z,13.68
2023-10-09T10:47:45.926Z,13.65
2023-10-09T10:50:13.434Z,13.63
2023-10-09T10:52:39.878Z,13.57
2023-10-09T10:55:11.158Z,13.59
2023-10-09T10:57:37.773Z,13.58
2023-10-09T11:00:12.203Z,13.50
2023-10-09T11:02:39.186Z,13.52
2023-10-09T11:05:06.369Z,13.46
2023-10-09T11:07:32.902Z,13.40
2023-10-09T11:09:59.624Z,13.36
2023-10-09T11:12:28.151Z,13.32
2023-10-09T11:14:54.518Z,13.24
2023-10-09T11:17:21.341Z,13.23
2023-10-09T11:19:48.368Z,13.20
2023-10-09T11:22:15.022Z,13.07
2023-10-09T11:24:41.968Z,13.02
2023-10-09T11:27:09.229Z,13.00
2023-10-09T11:29:36.811Z,12.97
2023-10-09T11:32:08.008Z,12.90
2023-10-09T11:34:35.008Z,12.89
2023-10-09T11:37:14.192Z,12.89
2023-10-09T11:39:40.732Z,12.92
2023-10-09T11:42:15.588Z,12.96
2023-10-09T11:44:43.268Z,13.00
2023-10-09T11:47:09.704Z,13.00
2023-10-09T11:49:36.163Z,13.02
2023-10-09T11:52:06.952Z,13.05
2023-10-09T11:54:34.013Z,13.04
2023-10-09T11:57:00.850Z,13.07
2023-10-09T11:59:27.444Z,13.07
2023-10-09T12:01:54.617Z,13.09
2023-10-09T12:04:21.244Z,13.07
2023-10-09T12:06:47.676Z,13.01
2023-10-09T12:09:14.047Z,13.04
2023-10-09T12:11:54.067Z,13.01
2023-10-09T12:14:26.852Z,12.96
2023-10-09T12:16:53.289Z,12.95
2023-10-09T12:19:19.698Z,12.98
2023-10-09T12:21:46.081Z,12.97
2023-10-09T12:24:12.454Z,12.97
2023-10-09T12:26:39.323Z,12.96
2023-10-09T12:29:06.333Z,12.99
2023-10-09T12:31:32.752Z,13.03
2023-10-09T12:33:59.184Z,12.98
2023-10-09T12:36:25.647Z,12.99
2023-10-09T12:38:52.351Z,12.96
2023-10-09T12:41:18.797Z,12.98
2023-10-09T12:43:45.224Z,12.95
2023-10-09T12:46:11.718Z,12.96
2023-10-09T12:48:38.145Z,12.97
2023-10-09T12:51:04.564Z,12.99
2023-10-09T12:53:32.678Z,12.99
2023-10-09T12:55:59.296Z,13.04
2023-10-09T12:58:25.839Z,13.08
2023-10-09T13:00:52.232Z,13.13
2023-10-09T13:03:19.807Z,13.15
2023-10-09T13:05:51.545Z,13.17
2023-10-09T13:08:17.937Z,13.21
2023-10-09T13:10:44.375Z,13.22
2023-10-09T13:13:10.814Z,13.22
2023-10-09T13:15:37.176Z,13.24
2023-10-09T13:18:03.809Z,13.24
2023-10-09T13:20:30.189Z,13.21
2023-10-09T13:22:56.593Z,13.23
2023-10-09T13:25:34.571Z,13.31
2023-10-09T13:28:02.226Z,13.25
2023-10-09T13:30:28.619Z,13.22
2023-10-09T13:32:55.081Z,13.20
2023-10-09T13:35:21.517Z,13.19
2023-10-09T13:37:47.923Z,13.24
2023-10-09T13:40:14.848Z,13.24
2023-10-09T13:42:41.213Z,13.31
2023-10-09T13:45:08.188Z,13.37
2023-10-09T13:47:34.655Z,13.42
2023-10-09T13:50:01.180Z,13.44
2023-10-09T13:52:27.607Z,13.47
2023-10-09T13:54:53.982Z,13.47
2023-10-09T13:57:20.375Z,13.50
2023-10-09T13:59:46.735Z,13.47
2023-10-09T14:02:13.149Z,13.50
2023-10-09T14:04:39.719Z,13.56
2023-10-09T14:07:06.192Z,13.63
2023-10-09T14:09:32.816Z,13.66
2023-10-09T14:12:01.147Z,13.67
2023-10-09T14:14:27.547Z,13.67
2023-10-09T14:16:53.923Z,13.65
2023-10-09T14:19:20.309Z,13.56
2023-10-09T14:21:46.673Z,13.52
2023-10-09T14:24:13.552Z,13.46
2023-10-09T14:26:41.000Z,13.42
2023-10-09T14:29:07.436Z,13.40
2023-10-09T14:31:33.976Z,13.28
2023-10-09T14:34:00.440Z,13.28
2023-10-09T14:36:26.797Z,13.21
2023-10-09T14:38:53.202Z,13.21
2023-10-09T14:41:21.088Z,13.14
2023-10-09T14:43:47.471Z,13.16
2023-10-09T14:46:14.885Z,13.13
2023-10-09T14:48:41.307Z,13.15
2023-10-09T14:51:08.127Z,13.17
2023-10-09T14:53:34.672Z,13.23
2023-10-09T14:56:01.569Z,13.22
2023-10-09T14:58:28.844Z,13.22
2023-10-09T15:00:55.473Z,13.26
2023-10-09T15:03:22.659Z,13.26
2023-10-09T15:05:52.275Z,13.26
2023-10-09T15:08:18.700Z,13.26
2023-10-09T15:10:46.741Z,13.30
2023-10-09T15:13:13.120Z,13.31
2023-10-09T15:15:42.487Z,13.28
2023-10-09T15:18:08.978Z,13.24
2023-10-09T15:20:36.171Z,13.24
2023-10-09T15:23:02.628Z,13.23
2023-10-09T15:25:29.022Z,13.25
2023-10-09T15:27:55.385Z,13.26
2023-10-09T15:30:21.881Z,13.28
2023-10-09T15:32:48.286Z,13.31
2023-10-09T15:35:15.157Z,13.33
2023-10-09T15:37:42.912Z,13.34
2023-10-09T15:40:09.676Z,13.31
2023-10-09T15:42:37.790Z,13.35
2023-10-09T15:45:04.630Z,13.35
2023-10-09T15:47:31.069Z,13.38
2023-10-09T15:49:57.469Z,13.35
2023-10-09T15:52:23.877Z,13.41
2023-10-09T15:54:50.222Z,13.40
2023-10-09T15:57:16.594Z,13.37
2023-10-09T15:59:42.939Z,13.35
2023-10-09T16:02:09.357Z,13.36
2023-10-09T16:04:35.813Z,13.35
2023-10-09T16:07:02.327Z,13.38
2023-10-09T16:09:28.688Z,13.41
2023-10-09T16:11:55.265Z,13.43
2023-10-09T16:14:21.712Z,13.42
2023-10-09T16:16:48.099Z,13.44
2023-10-09T16:19:14.514Z,13.48
2023-10-09T16:21:40.950Z,13.53
2023-10-09T16:24:08.384Z,13.55
2023-10-09T16:26:34.728Z,13.56
2023-10-09T16:29:01.120Z,13.55
2023-10-09T16:31:28.995Z,13.56
2023-10-09T16:33:55.390Z,13.58
2023-10-09T16:36:21.739Z,13.62
2023-10-09T16:38:48.173Z,13.63
2023-10-09T16:41:14.589Z,13.65
2023-10-09T16:43:41.062Z,13.67
2023-10-09T16:46:07.703Z,13.68
2023-10-09T16:48:34.169Z,13.71
2023-10-09T16:51:06.191Z,13.67
2023-10-09T16:53:34.527Z,13.65
2023-10-09T16:56:02.024Z,13.60
2023-10-09T16:58:28.471Z,13.51
2023-10-09T17:00:57.149Z,13.43
2023-10-09T17:03:23.799Z,13.41
2023-10-09T17:05:52.161Z,13.37
2023-10-09T17:08:18.596Z,13.36
2023-10-09T17:10:45.000Z,13.35
2023-10-09T17:13:12.130Z,13.37
2023-10-09T17:15:38.780Z,13.38
2023-10-09T17:18:05.386Z,13.35
2023-10-09T17:20:31.942Z,13.35
2023-10-09T17:22:58.663Z,13.33
2023-10-09T17:25:25.311Z,13.32
2023-10-09T17:27:51.646Z,13.34
2023-10-09T17:30:18.063Z,13.38
2023-10-09T17:32:47.968Z,13.39
2023-10-09T17:35:14.963Z,13.42
2023-10-09T17:37:42.577Z,13.42
2023-10-09T17:40:10.084Z,13.42
2023-10-09T17:42:36.908Z,13.41
2023-10-09T17:45:04.111Z,13.45
2023-10-09T17:47:30.572Z,13.45
2023-10-09T17:49:57.027Z,13.49
2023-10-09T17:52:23.488Z,13.47
2023-10-09T17:54:49.928Z,13.45
2023-10-09T17:57:16.310Z,13.43
2023-10-09T17:59:42.664Z,13.38
2023-10-09T18:02:09.096Z,13.29
2023-10-09T18:04:35.553Z,13.23
2023-10-09T18:07:03.441Z,13.19
2023-10-09T18:09:29.829Z,13.16
2023-10-09T18:11:56.213Z,13.15
2023-10-09T18:14:23.498Z,13.11
2023-10-09T18:16:50.532Z,13.04
2023-10-09T18:19:17.189Z,12.96
2023-10-09T18:21:43.540Z,12.87
2023-10-09T18:24:10.832Z,12.80
2023-10-09T18:26:37.190Z,12.77
2023-10-09T18:29:05.261Z,12.72
2023-10-09T18:31:33.401Z,12.64
2023-10-09T18:33:59.781Z,12.58
2023-10-09T18:36:26.133Z,12.54
2023-10-09T18:38:53.130Z,12.45
2023-10-09T18:41:20.089Z,12.37
2023-10-09T18:43:46.618Z,12.31
2023-10-09T18:46:13.381Z,12.26
2023-10-09T18:48:39.934Z,12.22
2023-10-09T18:51:06.307Z,12.14
2023-10-09T18:53:32.672Z,12.10
2023-10-09T18:55:59.293Z,12.05
2023-10-09T18:58:25.672Z,12.02
2023-10-09T19:00:52.065Z,11.99
2023-10-09T19:03:18.914Z,11.98
2023-10-09T19:05:45.486Z,11.94
2023-10-09T19:08:12.885Z,11.89
2023-10-09T19:10:39.991Z,11.82
2023-10-09T19:13:06.345Z,11.66
2023-10-09T19:15:32.720Z,11.59
2023-10-09T19:17:59.469Z,11.55
2023-10-09T19:20:26.083Z,11.52
2023-10-09T19:22:52.602Z,11.53
2023-10-09T19:25:19.042Z,11.51
2023-10-09T19:27:47.862Z,11.45
2023-10-09T19:30:14.450Z,11.44
2023-10-09T19:32:40.870Z,11.31
2023-10-09T19:35:08.097Z,11.21
2023-10-09T19:37:34.539Z,11.19
2023-10-09T19:40:00.901Z,11.14
2023-10-09T19:42:27.247Z,11.14
2023-10-09T19:44:53.602Z,11.16
2023-10-09T19:47:19.960Z,11.14
2023-10-09T19:49:47.467Z,11.12
2023-10-09T19:52:13.892Z,11.13
2023-10-09T19:54:40.257Z,11.11
2023-10-09T19:57:06.602Z,11.04
2023-10-09T19:59:33.006Z,10.98
2023-10-09T20:01:59.466Z,10.97
2023-10-09T20:04:26.005Z,10.96
2023-10-09T20:06:52.362Z,10.93
2023-10-09T20:09:18.928Z,10.92
2023-10-09T20:11:45.280Z,10.93
2023-10-09T20:14:11.680Z,10.95
2023-10-09T20:16:38.181Z,10.94
2023-10-09T20:19:04.664Z,10.93
2023-10-09T20:21:31.040Z,10.88
2023-10-09T20:23:57.378Z,10.76
2023-10-09T20:26:23.745Z,10.64
2023-10-09T20:28:50.257Z,10.67
2023-10-09T20:31:16.727Z,10.68
2023-10-09T20:33:43.442Z,10.67
2023-10-09T20:36:11.825Z,10.64
2023-10-09T20:38:38.536Z,10.64
2023-10-09T20:41:05.671Z,10.62
2023-10-09T20:43:32.074Z,10.62
2023-10-09T20:45:58.445Z,10.65
2023-10-09T20:48:24.812Z,10.69
2023-10-09T20:50:51.174Z,10.75
2023-10-09T20:53:17.618Z,10.76
2023-10-09T20:55:51.268Z,10.71
2023-10-09T20:58:18.309Z,10.75
2023-10-09T21:00:44.670Z,10.77
2023-10-09T21:03:11.121Z,10.83
2023-10-09T21:05:37.520Z,10.69
2023-10-09T21:08:04.142Z,10.68
2023-10-09T21:10:30.568Z,10.70
2023-10-09T21:12:56.960Z,10.73
2023-10-09T21:15:24.252Z,10.78
2023-10-09T21:17:50.738Z,10.84
2023-10-09T21:20:17.389Z,10.86
2023-10-09T21:22:44.959Z,10.86
2023-10-09T21:25:11.469Z,10.90
2023-10-09T21:27:38.113Z,10.87
2023-10-09T21:30:05.045Z,10.89
2023-10-09T21:32:31.939Z,10.86
2023-10-09T21:34:58.545Z,10.86
2023-10-09T21:37:24.939Z,10.94
2023-10-09T21:39:51.289Z,10.98
2023-10-09T21:42:17.627Z,11.02
2023-10-09T21:44:43.982Z,11.07
2023-10-09T21:47:10.400Z,11.07
2023-10-09T21:49:36.767Z,11.14
2023-10-09T21:52:03.104Z,11.17
2023-10-09T21:54:29.462Z,11.17
2023-10-09T21:56:55.859Z,11.17
2023-10-09T21:59:22.301Z,11.18
2023-10-09T22:01:51.643Z,11.21
2023-10-09T22:04:18.224Z,11.21
2023-10-09T22:06:44.675Z,11.25
2023-10-09T22:09:11.058Z,11.25
2023-10-09T22:11:37.403Z,11.28
2023-10-09T22:14:03.783Z,11.35
2023-10-09T22:16:30.203Z,11.39
2023-10-09T22:19:13.087Z,11.40
2023-10-09T22:21:42.080Z,11.44
2023-10-09T22:24:08.564Z,11.47
2023-10-09T22:26:34.926Z,11.48
2023-10-09T22:29:01.333Z,11.49
2023-10-09T22:31:27.892Z,11.50
2023-10-09T22:33:54.267Z,11.51
2023-10-09T22:36:21.222Z,11.52
2023-10-09T22:38:47.559Z,11.58
2023-10-09T22:41:13.976Z,11.59
2023-10-09T22:43:40.341Z,11.62
2023-10-09T22:46:08.591Z,11.64
2023-10-09T22:48:35.099Z,11.67
2023-10-09T22:51:01.463Z,11.67
2023-10-09T22:53:27.874Z,11.69
2023-10-09T22:55:54.275Z,11.71
2023-10-09T22:58:22.312Z,11.71
2023-10-09T23:00:48.705Z,11.71
2023-10-09T23:03:16.686Z,11.73
2023-10-09T23:05:43.149Z,11.75
2023-10-09T23:08:09.591Z,11.71
2023-10-09T23:10:35.978Z,11.70
2023-10-09T23:13:02.353Z,11.73
2023-10-09T23:15:28.851Z,11.78
2023-10-09T23:17:55.288Z,11.78
2023-10-09T23:20:21.765Z,11.82
2023-10-09T23:22:48.179Z,11.86
2023-10-09T23:25:15.222Z,11.89
2023-10-09T23:27:41.607Z,11.89
2023-10-09T23:30:09.752Z,11.89
2023-10-09T23:32:37.129Z,11.91
2023-10-09T23:35:04.371Z,11.90
2023-10-09T23:37:30.742Z,11.92
2023-10-09T23:39:57.083Z,11.92
2023-10-09T23:42:23.441Z,11.94
2023-10-09T23:44:49.791Z,11.93
2023-10-09T23:47:16.197Z,11.93
2023-10-09T23:49:42.900Z,11.94
2023-10-09T23:52:09.254Z,11.95
2023-10-09T23:54:35.614Z,11.95
2023-10-09T23:57:01.951Z,11.93
2023-10-09T23:59:28.403Z,11.93
